To NAV CANADA Home Page Login to a new session Search on AWWS site Feedback and Comments Disclaimer Vers la page française équivalente Tips FAQ What's new on the site To the Forecasts and Observations / NOTAM section To "File a Flight Plan" website Publications and other links Update of the User's profile FIC Telephone Numbers My Weather Data Folder Route Weather Data Regional Weather Data Local Weather Data To the Forecasts and Observations / NOTAM section
Request Generated 08/22/2017 at 03:18:56 UTC . Weather information available at that time is displayed.

METAR/TAF

SARNIA (CHRIS HADFIELD)/ON    (show WxCam)

METAR CYZR 220300Z AUTO 18007KT 9SM OVC190 23/20 A2995 RMK SLP139
DENSITY ALT 1600FT=
METAR CYZR 220200Z AUTO 17007KT 9SM OVC190 24/20 A2998 RMK SLP149
DENSITY ALT 1700FT=
METAR CYZR 220100Z AUTO 15007KT 9SM OVC200 25/20 A2998 RMK SLP152
DENSITY ALT 1700FT=

*** REMARK        : Forecast period has ended; this was the last TAF issued
*** REMARQUE : La période de prévision est échue; ceci était le dernier TAF qui a été émis
TAF CYZR 211938Z 2120/2202 18008KT P6SM FEW180 TEMPO 2120/2202 5SM HZ
RMK FCST BASED ON AUTO OBS. NXT FCST WILL BE ISSUED AT 220745Z=
Your time UTC time
Weather data provided by Environment Canada and NAV CANADA